METAR Data
IDs: Format: Raw Decoded Include TAF

Data at: 0400 UTC 20 Oct 2018

PFYU 200356Z AUTO 04013KT 8SM -SN FEW008 BKN023 OVC028 01/M01 A2928 RMK AO2 SLP939 P0001 T00061006 FZRANO
PFYU 200353Z AUTO 04010KT 7SM -SN FEW008 OVC025 01/M01 A2928 RMK AO2 P0001 FZRANO
PFYU 200256Z 03011KT 9SM -SN BKN026 OVC033 01/M01 A2930 RMK AO2 RAB44E46SNB46 SLP946 P0000 60000 T00111011 56014
PFYU 200254Z 03010KT 9SM -SN BKN026 OVC033 01/M01 A2930 RMK AO2 RAB44E46SNB46 P0000
PFYU 200247Z 04012KT 10SM -SN SCT026 BKN033 OVC050 01/M01 A2930 RMK AO2 RAB44E46SNB46 P0000
PFYU 200156Z 04013KT 10SM FEW040 OVC046 01/M02 A2931 RMK AO2 SLP951 T00061017
PFYU 200056Z 06011G16KT 10SM BKN095 OVC110 00/M02 A2934 RMK AO2 SLP960 T00001017
PFYU 192356Z 05011KT 10SM OVC100 00/M02 A2937 RMK AO2 SLP971 T00001017 10000 21067 56041
PFYU 192256Z 04010KT 10SM CLR M01/M02 A2940 RMK AO2 SLP981 T10061017
PFYU 192156Z 03011KT 10SM CLR M01/M02 A2943 RMK AO2 PRESFR SLP990 T10111022
PFYU 191956Z 05008KT 10SM CLR M02/M03 A2954 RMK AO2 SLP027 T10221028
PFYU 191856Z 03008KT 10SM CLR M04/M04 A2957 RMK AO2 PRESFR SLP039 T10441044
PFYU 191756Z 02004KT 10SM CLR M07/M07 A2964 RMK AO2 SLP063 T10671072 11050 21078 58045
PFYU 191656Z 02003KT 10SM CLR M07/M08 A2970 RMK AO2 SLP083 T10721083
PFYU 191556Z 02006KT 10SM CLR M07/M08 A2973 RMK AO2 SLP092 T10721078
PFYU 191456Z AUTO 00000KT 10SM CLR M07/M08 A2978 RMK AO2 SLP109 T10721078 58033 FZRANO
PFYU 191409Z AUTO 03004KT 10SM FEW007 M07/M08 A2981 RMK AO2 FZRANO
PFYU 191356Z AUTO 02003KT 10SM BKN007 M07/M07 A2982 RMK AO2 SLP123 T10671072 FZRANO
PFYU 191338Z AUTO 00000KT 10SM BKN007 M07/M07 A2984 RMK AO2 CIG 005V009 FZRANO
PFYU 191305Z AUTO 03003KT 10SM SCT007 M06/M07 A2985 RMK AO2 FZRANO
PFYU 191256Z AUTO 01003KT 10SM BKN007 M06/M07 A2985 RMK AO2 SLP136 T10611067 FZRANO
PFYU 191231Z AUTO 00000KT 10SM BKN007 M06/M07 A2987 RMK AO2 FZRANO
PFYU 191156Z AUTO 03003KT 10SM FEW005 M05/M06 A2988 RMK AO2 SLP143 T10501056 11006 21050 58022 FZRANO
PFYU 191149Z AUTO 02004KT 10SM SCT005 M05/M06 A2988 RMK AO2 FZRANO
PFYU 191056Z AUTO 04004KT 10SM OVC005 M03/M04 A2991 RMK AO2 SLP154 T10331039 FZRANO
PFYU 191045Z AUTO 03004KT 10SM OVC005 M03/M03 A2991 RMK AO2 FZRANO
PFYU 191019Z AUTO 03004KT 10SM OVC003 M02/M03 A2992 RMK AO2 FZRANO
PFYU 191009Z AUTO 04003KT 2SM BR OVC003 M02/M02 A2993 RMK AO2 FZRANO
PFYU 191006Z AUTO 02003KT 1SM BR OVC003 M02/M02 A2993 RMK AO2 VIS 3/4V5 FZRANO
PFYU 190956Z AUTO 02003KT 3/4SM BR OVC003 M02/M02 A2993 RMK AO2 SLP160 T10171022 FZRANO
PFYU 190947Z AUTO 00000KT 3/4SM BR OVC003 M02/M02 A2994 RMK AO2 FZRANO
PFYU 190924Z AUTO 02003KT 1/2SM FZFG OVC003 M01/M02 A2994 RMK AO2 FZRANO
PFYU 190912Z AUTO 00000KT 3/4SM BR OVC003 M01/M02 A2994 RMK AO2 VIS 1/2V4 FZRANO
PFYU 190906Z AUTO 03004KT 1 3/4SM BR OVC003 M01/M02 A2994 RMK AO2 VIS 3/4V4 FZRANO
PFYU 190856Z AUTO 01005KT 7SM OVC003 M01/M02 A2994 RMK AO2 SLP164 T10111017 400061022 58006 FZRANO
PFYU 190846Z AUTO 00000KT 4SM BR OVC003 M01/M01 A2995 RMK AO2 FZRANO
PFYU 190842Z AUTO 03003KT 1 1/4SM BR OVC003 M01/M01 A2995 RMK AO2 FZRANO
PFYU 190832Z AUTO 03004KT 3/4SM BR OVC003 M01/M01 A2995 RMK AO2 FZRANO
PFYU 190827Z AUTO 05003KT 1 3/4SM BR OVC003 M01/M01 A2995 RMK AO2 VIS 3/4V5 FZRANO
PFYU 190817Z AUTO 04003KT 5SM BR OVC003 M01/M01 A2995 RMK AO2 FZRANO
PFYU 190807Z AUTO 05004KT 2SM BR OVC003 M01/M01 A2996 RMK AO2 VIS 1V3 FZRANO
PFYU 190803Z AUTO 04004KT 1SM BR OVC003 M01/M01 A2996 RMK AO2 VIS 1/2V3 FZRANO
PFYU 190756Z AUTO 03003KT 1/2SM FZFG OVC003 M01/M01 A2996 RMK AO2 SLP169 T10061011 FZRANO
PFYU 190746Z AUTO 00000KT 1/2SM FZFG OVC003 M01/M01 A2996 RMK AO2 FZRANO
PFYU 190720Z AUTO 00000KT 3/4SM BR OVC003 M01/M01 A2997 RMK AO2 FZRANO
PFYU 190708Z AUTO 06004KT 1 1/4SM BR OVC003 M01/M01 A2996 RMK AO2 VIS 1/2V4 FZRANO
PFYU 190656Z AUTO 05003KT 3/4SM BR OVC003 M01/M01 A2996 RMK AO2 SLP171 T10061011 FZRANO
PFYU 190651Z AUTO 04003KT 1/2SM FZFG OVC003 M01/M01 A2996 RMK AO2 FZRANO
PFYU 190642Z AUTO 05003KT 3/4SM BR OVC003 M01/M01 A2997 RMK AO2 FZRANO
PFYU 190632Z AUTO 06003KT 1 1/4SM BR OVC003 M01/M01 A2997 RMK AO2 FZRANO
PFYU 190611Z AUTO 00000KT 3/4SM BR OVC003 M01/M01 A2997 RMK AO2 FZRANO
PFYU 190603Z AUTO 00000KT 1 3/4SM BR OVC003 M01/M01 A2997 RMK AO2 VIS 3/4V4 FZRANO
PFYU 190556Z AUTO 00000KT 3SM BR OVC003 M01/M01 A2997 RMK AO2 SLP175 T10111011 10006 21011 58001 FZRANO
PFYU 190548Z AUTO 00000KT 3SM BR OVC003 M01/M01 A2997 RMK AO2 FZRANO
PFYU 190532Z AUTO 05004KT 1 1/2SM BR OVC003 M01/M01 A2997 RMK AO2 FZRANO
PFYU 190525Z AUTO 02004KT 2SM BR OVC003 M01/M01 A2997 RMK AO2 VIS 1 1/2V2 1/2 FZRANO
PFYU 190518Z AUTO 02003KT 3SM BR OVC003 M01/M01 A2998 RMK AO2 FZRANO
PFYU 190510Z AUTO 03004KT 2 1/2SM BR OVC003 M01/M01 A2998 RMK AO2 FZRANO
PFYU 190456Z AUTO 07005KT 4SM BR OVC003 M01/M01 A2998 RMK AO2 SLP176 T10061011 FZRANO
PFYU 190450Z AUTO 07003KT 3SM BR OVC003 M01/M01 A2998 RMK AO2 FZRANO
PFYU 190436Z AUTO 00000KT 1 3/4SM BR OVC003 M01/M01 A2998 RMK AO2 FZRANO
PFYU 190417Z AUTO 05003KT 3SM BR OVC003 M01/M01 A2998 RMK AO2 FZRANO
PFYU 190355Z AUTO 04003KT 1 1/2SM BR OVC003 M01/M01 A2998 RMK AO2 SLP178 T10061006 FZRANO
PFYU 190354Z AUTO 05003KT 1 3/4SM BR OVC003 M01/M01 A2998 RMK AO2 VIS 1 1/4V5 FZRANO
PFYU 190334Z AUTO 07005KT 8SM OVC003 00/M01 A2998 RMK AO2 FZRANO
PFYU 190256Z 00000KT 10SM OVC005 00/M01 A2998 RMK AO2 CIG 003V008 SLP176 T00001006 55000
PFYU 190201Z 00000KT 10SM OVC005 00/M01 A2998 RMK AO2 CIG 002V008
PFYU 190156Z 00000KT 1SM BR BKN003 00/M01 A2998 RMK AO2 SLP176 T00001006
PFYU 190120Z 00000KT 1SM BR BKN003 00/M01 A2998 RMK AO2
PFYU 190104Z 00000KT 1SM BR FEW003 00/M01 A2998 RMK AO2
PFYU 190056Z 00000KT 1/4SM FG OVC003 00/M01 A2998 RMK AO2 SLP176 T00001006
PFYU 182356Z 00000KT 1/4SM FG OVC003 00/00 A2998 RMK AO2 UPB30E32 SLP177 P0000 60000 T00000000 10000 21017 51006
PFYU 182310Z 00000KT 1/4SM FG OVC003 00/M01 A2998 RMK AO2
PFYU 182256Z 00000KT 1SM BR OVC003 M01/M01 A2998 RMK AO2 SLP176 T10061006
PFYU 182211Z 03003KT 1SM BR OVC003 00/M01 A2997 RMK AO2
PFYU 182203Z 04003KT 1/4SM FG OVC003 00/M01 A2997 RMK AO2
PFYU 182156Z 04003KT 1SM BR OVC003 00/M01 A2997 RMK AO2 SLP173 T00001006
PFYU 182125Z 00000KT 1SM BR OVC003 M01/M01 A2996 RMK AO2 VIS 1/4V3
PFYU 182112Z VRB03KT 2SM BR OVC003 M01/M01 A2996 RMK AO2 VIS 1V4
PFYU 182056Z 00000KT 4SM BR OVC003 00/M01 A2996 RMK AO2 SLP170 T00001006 53010
PFYU 182013Z 00000KT 4SM BR OVC003 00/M01 A2995 RMK AO2
PFYU 181956Z 04005KT 8SM OVC005 00/M01 A2994 RMK AO2 CIG 002V006 SLP163 T00001006
PFYU 181951Z 04005KT 10SM OVC005 00/M01 A2994 RMK AO2
PFYU 181856Z 03003KT 10SM OVC009 M01/M01 A2993 RMK AO2 SLP159 T10061006
PFYU 181756Z 00000KT 10SM SCT009 BKN070 BKN090 M02/M02 A2991 RMK AO2 SLP152 60000 T10171017 11017 21022 53016
PFYU 181656Z 00000KT 10SM BKN065 M02/M03 A2989 RMK AO2 SLP146 T10221028